Time;durP1;ratioP1;P1;durP2;ratioP2;P2;SDS_P1;SDS_P2;PMS_P1;PMS_P2;Temp;Humidity;BMP_temperature;BMP_pressure;BME280_temperature;BME280_humidity;BME280_pressure;Samples;Min_cycle;Max_cycle;Signal;HPM_P1;HPM_P2
2023/05/31 05:34:30;;;;;;;20.33;11.00;;;14.90;69.40;;;;;;5391486;23;20870;-74
2023/05/31 05:36:57;;;;;;;21.23;10.82;;;14.90;69.90;;;;;;4933732;29;20666;-75
2023/05/31 05:39:22;;;;;;;19.20;10.35;;;14.90;69.50;;;;;;4965253;28;20394;-76
2023/05/31 05:41:48;;;;;;;19.90;10.25;;;14.90;69.50;;;;;;4965907;28;20027;-76
2023/05/31 05:44:13;;;;;;;19.15;11.13;;;14.90;69.20;;;;;;4970161;28;20035;-76
2023/05/31 05:46:39;;;;;;;19.50;10.48;;;14.90;69.60;;;;;;4976268;28;20515;-75
2023/05/31 05:49:05;;;;;;;21.20;10.85;;;15.00;69.40;;;;;;4941608;29;20045;-76
2023/05/31 05:51:31;;;;;;;21.33;10.13;;;15.00;69.50;;;;;;4958284;28;20023;-76
2023/05/31 05:53:57;;;;;;;23.20;11.55;;;15.10;69.40;;;;;;4976497;28;20039;-76
2023/05/31 05:56:22;;;;;;;18.65;10.18;;;15.20;69.20;;;;;;4967285;28;20885;-76
2023/05/31 05:58:48;;;;;;;22.45;11.32;;;15.20;69.00;;;;;;4957075;29;20032;-76
2023/05/31 06:01:18;;;;;;;18.88;11.48;;;15.20;68.80;;;;;;4956602;29;20031;-75
2023/05/31 06:03:48;;;;;;;20.65;10.88;;;15.20;69.40;;;;;;4957145;29;20052;-76
2023/05/31 06:06:14;;;;;;;18.33;10.80;;;15.20;69.30;;;;;;4955335;28;20031;-76
2023/05/31 06:08:39;;;;;;;17.75;10.80;;;15.20;68.90;;;;;;4960972;28;20042;-76
2023/05/31 06:11:05;;;;;;;19.67;10.85;;;15.30;69.10;;;;;;4965107;28;20028;-75
2023/05/31 06:13:30;;;;;;;21.35;10.80;;;15.30;68.60;;;;;;4957011;29;20038;-76
2023/05/31 06:15:57;;;;;;;18.75;9.95;;;15.30;68.70;;;;;;4955396;29;20037;-76
2023/05/31 06:18:23;;;;;;;18.63;10.48;;;15.40;68.50;;;;;;4955736;29;20867;-76
2023/05/31 06:20:48;;;;;;;17.52;10.05;;;15.30;68.80;;;;;;4957370;28;20031;-76
2023/05/31 06:23:14;;;;;;;19.05;11.15;;;15.40;69.00;;;;;;4960287;29;20035;-76
2023/05/31 06:25:41;;;;;;;19.85;10.15;;;15.40;68.40;;;;;;4958057;29;20023;-76
2023/05/31 06:28:06;;;;;;;20.23;10.68;;;15.40;68.80;;;;;;4942952;29;20031;-76
2023/05/31 06:30:32;;;;;;;19.25;10.40;;;15.50;68.50;;;;;;4958163;28;20023;-76
2023/05/31 06:32:57;;;;;;;21.40;11.57;;;15.60;68.30;;;;;;4943000;29;20037;-76
2023/05/31 06:35:23;;;;;;;20.80;10.27;;;15.50;68.30;;;;;;4958918;29;20047;-76
2023/05/31 06:37:51;;;;;;;20.45;10.80;;;15.60;68.40;;;;;;4958734;28;20083;-76
2023/05/31 06:40:17;;;;;;;17.23;10.55;;;15.70;68.40;;;;;;4952400;29;20051;-76
2023/05/31 06:42:43;;;;;;;20.50;10.73;;;15.80;68.00;;;;;;4930695;28;20151;-76
2023/05/31 06:45:09;;;;;;;20.65;10.90;;;15.80;68.10;;;;;;4961791;28;20501;-75
2023/05/31 06:47:35;;;;;;;17.33;10.40;;;15.80;67.70;;;;;;4979355;28;20023;-76
2023/05/31 06:50:02;;;;;;;16.48;9.95;;;15.90;67.40;;;;;;4964177;28;20019;-76
2023/05/31 06:52:27;;;;;;;17.10;9.57;;;15.90;67.40;;;;;;4959799;29;20023;-76
2023/05/31 06:54:53;;;;;;;17.85;10.13;;;16.00;67.20;;;;;;4958518;29;20030;-76
2023/05/31 06:57:19;;;;;;;18.95;10.65;;;15.90;67.50;;;;;;4959128;29;20481;-76
2023/05/31 06:59:44;;;;;;;15.60;10.02;;;16.10;67.20;;;;;;4941608;29;20030;-76
2023/05/31 07:02:10;;;;;;;19.15;9.98;;;16.00;67.90;;;;;;4959183;29;20389;-75
2023/05/31 07:04:36;;;;;;;18.52;11.05;;;16.10;67.40;;;;;;4958254;29;20354;-76
2023/05/31 07:07:02;;;;;;;16.17;9.73;;;16.20;67.20;;;;;;4957978;28;20035;-74
2023/05/31 07:09:28;;;;;;;15.85;9.25;;;16.30;66.70;;;;;;4941697;29;20089;-75
2023/05/31 07:11:53;;;;;;;14.07;8.90;;;16.40;66.40;;;;;;4959105;29;20035;-74
2023/05/31 07:14:23;;;;;;;17.67;10.15;;;16.50;66.00;;;;;;4958023;29;20027;-76
2023/05/31 07:16:49;;;;;;;17.27;9.77;;;16.50;66.00;;;;;;4956380;29;20028;-74
2023/05/31 07:19:14;;;;;;;16.10;9.50;;;16.60;66.00;;;;;;4941255;29;20079;-74
2023/05/31 07:21:40;;;;;;;14.50;8.82;;;16.80;65.40;;;;;;4957636;29;20031;-74
2023/05/31 07:24:06;;;;;;;15.60;8.85;;;16.80;65.30;;;;;;4958699;28;20026;-74
2023/05/31 07:26:32;;;;;;;19.08;10.55;;;17.20;64.80;;;;;;4940933;29;20501;-78
2023/05/31 07:28:57;;;;;;;13.32;9.88;;;18.00;62.70;;;;;;4940978;29;20035;-76
2023/05/31 07:31:23;;;;;;;12.45;9.30;;;19.30;59.40;;;;;;4940867;28;20037;-74
2023/05/31 07:33:49;;;;;;;14.43;9.73;;;21.40;53.90;;;;;;4958493;28;20062;-75
2023/05/31 07:36:15;;;;;;;11.68;9.50;;;22.40;50.70;;;;;;4957712;28;20065;-74
2023/05/31 07:38:41;;;;;;;12.02;9.30;;;23.60;47.60;;;;;;4954642;28;20028;-75
2023/05/31 07:41:06;;;;;;;12.52;9.38;;;24.40;45.70;;;;;;4956283;29;20027;-76
2023/05/31 07:43:34;;;;;;;13.02;9.77;;;25.60;43.80;;;;;;4959279;28;20442;-75
2023/05/31 07:46:00;;;;;;;11.82;10.10;;;27.30;41.00;;;;;;4957261;29;20098;-75
2023/05/31 07:48:25;;;;;;;11.50;9.63;;;29.10;37.00;;;;;;4958014;28;20539;-76
2023/05/31 07:50:51;;;;;;;10.55;9.48;;;30.70;34.80;;;;;;4939673;29;20042;-76
2023/05/31 07:53:17;;;;;;;11.68;9.95;;;31.70;32.80;;;;;;4958121;29;20023;-76
2023/05/31 07:55:44;;;;;;;11.20;9.10;;;32.80;31.30;;;;;;4958079;29;20175;-76
2023/05/31 07:58:11;;;;;;;11.32;9.57;;;33.60;30.50;;;;;;4957489;29;20035;-76
2023/05/31 08:00:38;;;;;;;10.98;9.05;;;34.10;29.00;;;;;;4958012;28;20024;-75
2023/05/31 08:03:05;;;;;;;9.93;8.98;;;34.40;28.30;;;;;;4940167;29;20496;-76
2023/05/31 08:05:31;;;;;;;11.50;9.18;;;34.50;27.90;;;;;;4940414;29;20489;-76
2023/05/31 08:07:57;;;;;;;9.73;8.80;;;34.60;27.30;;;;;;4956591;28;20045;-76
2023/05/31 08:10:22;;;;;;;12.45;9.68;;;34.60;27.80;;;;;;4939880;29;20042;-76
2023/05/31 08:12:48;;;;;;;10.88;9.82;;;35.00;27.30;;;;;;4958077;29;20023;-76
2023/05/31 08:15:13;;;;;;;10.50;9.40;;;35.30;26.60;;;;;;4957702;29;20528;-76
2023/05/31 08:17:39;;;;;;;10.05;9.05;;;35.60;26.50;;;;;;4956820;29;20032;-76
2023/05/31 08:20:06;;;;;;;10.45;9.10;;;35.70;26.50;;;;;;4956634;29;20035;-76
2023/05/31 08:22:32;;;;;;;10.02;9.05;;;36.20;25.90;;;;;;4956460;29;20050;-75
2023/05/31 08:24:58;;;;;;;10.65;9.55;;;36.30;25.80;;;;;;4938559;29;20035;-76
2023/05/31 08:27:24;;;;;;;9.25;8.45;;;36.30;25.30;;;;;;4940189;29;20027;-76
2023/05/31 08:29:50;;;;;;;9.63;8.73;;;36.40;25.50;;;;;;4955501;28;20035;-75
2023/05/31 08:32:16;;;;;;;10.85;8.02;;;36.40;25.70;;;;;;4955582;28;20501;-76
2023/05/31 08:34:43;;;;;;;10.52;9.43;;;36.30;25.80;;;;;;4957227;28;20094;-76
2023/05/31 08:37:09;;;;;;;9.30;8.27;;;36.30;25.80;;;;;;4957446;28;20019;-75
2023/05/31 08:39:35;;;;;;;9.90;8.93;;;36.40;25.70;;;;;;4956521;29;20095;-76
2023/05/31 08:42:04;;;;;;;10.40;8.15;;;36.30;25.60;;;;;;4957558;29;20453;-76
2023/05/31 08:44:30;;;;;;;8.70;7.90;;;36.30;25.40;;;;;;4956127;28;20078;-76
2023/05/31 08:47:19;;;;;;;11.73;8.38;;;36.30;26.00;;;;;;4957286;29;20106;-75
2023/05/31 08:49:45;;;;;;;10.23;8.93;;;36.20;26.20;;;;;;4937823;29;20031;-75
2023/05/31 08:52:12;;;;;;;9.82;7.90;;;36.20;25.20;;;;;;4938282;29;20521;-75
2023/05/31 08:54:39;;;;;;;7.88;7.07;;;36.10;25.90;;;;;;4957563;29;20028;-75
2023/05/31 08:57:05;;;;;;;8.65;7.85;;;36.00;26.60;;;;;;4955975;29;20027;-76
2023/05/31 08:59:33;;;;;;;8.95;8.05;;;36.00;26.60;;;;;;4956132;29;20034;-75
2023/05/31 09:02:00;;;;;;;9.30;8.05;;;36.20;26.20;;;;;;4956951;29;20587;-75
2023/05/31 09:04:26;;;;;;;10.30;9.00;;;36.40;25.70;;;;;;4954574;29;20103;-75
2023/05/31 09:06:52;;;;;;;9.50;8.20;;;36.40;25.30;;;;;;4957105;28;20054;-76
2023/05/31 09:09:19;;;;;;;9.13;8.23;;;36.30;25.90;;;;;;4954947;29;20039;-75
2023/05/31 09:11:45;;;;;;;9.15;8.20;;;36.40;26.10;;;;;;4950592;29;20524;-75
2023/05/31 09:14:11;;;;;;;8.70;7.80;;;36.50;26.20;;;;;;4953079;28;20136;-76
2023/05/31 09:16:37;;;;;;;8.95;8.05;;;36.80;26.20;;;;;;4957210;28;20386;-76
2023/05/31 09:19:05;;;;;;;9.50;7.72;;;37.00;26.40;;;;;;4955857;28;20027;-76
2023/05/31 09:21:41;;;;;;;9.73;8.63;;;37.10;25.40;;;;;;4939815;29;20020;-76
2023/05/31 09:24:07;;;;;;;8.20;7.32;;;37.00;25.60;;;;;;4955217;29;20027;-76
2023/05/31 09:26:33;;;;;;;8.90;8.00;;;37.00;25.40;;;;;;4956827;28;20016;-76
2023/05/31 09:29:00;;;;;;;9.13;8.23;;;36.80;24.80;;;;;;4955880;29;20065;-76
2023/05/31 09:31:27;;;;;;;9.23;8.27;;;36.80;25.30;;;;;;4938706;29;20513;-75
2023/05/31 09:33:54;;;;;;;10.18;8.30;;;36.80;25.40;;;;;;4957095;29;20027;-75
2023/05/31 09:36:27;;;;;;;9.40;8.07;;;36.90;25.60;;;;;;4956122;28;20146;-76
2023/05/31 09:39:03;;;;;;;9.15;8.02;;;36.90;26.00;;;;;;4954235;29;20541;-75
2023/05/31 09:41:32;;;;;;;8.75;7.85;;;37.20;25.80;;;;;;4956674;29;20039;-75
2023/05/31 09:43:58;;;;;;;9.68;8.73;;;37.20;25.60;;;;;;4948222;29;20031;-75
2023/05/31 09:46:25;;;;;;;9.60;8.57;;;37.40;25.00;;;;;;4955746;29;20047;-75
2023/05/31 09:48:59;;;;;;;8.85;7.93;;;37.50;25.60;;;;;;4956255;29;20098;-75
2023/05/31 09:51:25;;;;;;;8.30;7.60;;;37.70;25.50;;;;;;4939667;29;20034;-75
2023/05/31 09:53:57;;;;;;;9.23;8.43;;;37.80;25.10;;;;;;4956065;29;20043;-75
2023/05/31 09:56:23;;;;;;;8.50;7.30;;;37.70;25.00;;;;;;4942692;29;20028;-75
2023/05/31 09:58:51;;;;;;;9.02;7.55;;;37.60;24.70;;;;;;4958908;29;20082;-75
2023/05/31 10:01:17;;;;;;;7.88;7.07;;;37.20;24.80;;;;;;4959388;28;20027;-75
2023/05/31 10:03:43;;;;;;;9.35;7.15;;;37.10;25.70;;;;;;4959590;28;20027;-74
2023/05/31 10:06:09;;;;;;;8.80;6.93;;;37.20;24.90;;;;;;4960332;28;20031;-75
2023/05/31 10:08:36;;;;;;;8.95;7.32;;;37.00;24.90;;;;;;4958014;29;20114;-75
2023/05/31 10:11:03;;;;;;;8.68;7.38;;;36.80;25.30;;;;;;4959763;29;20049;-75
2023/05/31 10:13:30;;;;;;;8.65;6.80;;;36.50;26.00;;;;;;4957038;28;20035;-74
2023/05/31 10:16:01;;;;;;;10.32;7.43;;;36.30;25.70;;;;;;4959696;29;20532;-75
2023/05/31 10:18:33;;;;;;;8.13;7.32;;;36.20;26.90;;;;;;4957441;29;20032;-75
2023/05/31 10:21:24;;;;;;;8.27;7.57;;;36.00;27.10;;;;;;4923970;29;20028;-75
2023/05/31 10:24:03;;;;;;;9.63;7.35;;;35.80;27.30;;;;;;4958800;29;20139;-74
2023/05/31 10:26:55;;;;;;;9.07;7.40;;;35.60;28.00;;;;;;4957792;29;20029;-76
2023/05/31 10:29:25;;;;;;;8.02;7.20;;;35.50;28.20;;;;;;4963010;29;20058;-76
2023/05/31 10:32:01;;;;;;;10.18;7.15;;;35.50;28.40;;;;;;4957789;28;20031;-73
2023/05/31 10:34:28;;;;;;;7.57;6.32;;;35.10;28.50;;;;;;4963141;28;20039;-73
2023/05/31 10:36:55;;;;;;;9.32;6.03;;;34.50;29.10;;;;;;4959902;28;20029;-73
2023/05/31 10:39:24;;;;;;;8.73;6.10;;;33.30;29.40;;;;;;4941645;29;20042;-73
2023/05/31 10:41:59;;;;;;;9.23;6.85;;;32.30;30.40;;;;;;4940960;29;20102;-72
2023/05/31 10:44:33;;;;;;;10.65;6.95;;;31.50;32.20;;;;;;4975116;28;20031;-72
2023/05/31 10:47:04;;;;;;;7.95;6.63;;;31.00;33.20;;;;;;4966260;28;20035;-71
2023/05/31 10:49:32;;;;;;;10.13;6.93;;;30.50;33.50;;;;;;4942557;29;20422;-72
2023/05/31 10:52:04;;;;;;;9.23;6.35;;;30.40;35.20;;;;;;4959675;29;20028;-73
2023/05/31 10:54:31;;;;;;;;;;;30.20;34.80;;;;;;4959752;29;20386;-73
2023/05/31 10:57:03;;;;;;;8.70;5.85;;;29.90;35.10;;;;;;4957906;28;19910;-73
2023/05/31 10:59:40;;;;;;;10.10;6.38;;;29.90;35.00;;;;;;4958700;29;20019;-73
2023/05/31 11:02:08;;;;;;;8.27;6.20;;;29.90;35.80;;;;;;4940504;29;20032;-73
2023/05/31 11:04:44;;;;;;;12.43;6.05;;;30.00;35.70;;;;;;4948191;28;20470;-73
2023/05/31 11:07:11;;;;;;;9.93;5.68;;;29.90;35.00;;;;;;4952559;28;20027;-73
2023/05/31 11:09:39;;;;;;;7.65;5.22;;;29.70;34.90;;;;;;4939727;29;20446;-73
2023/05/31 11:12:06;;;;;;;10.68;6.03;;;29.70;35.40;;;;;;4957345;29;20124;-74
2023/05/31 11:14:31;;;;;;;9.50;5.60;;;29.60;37.40;;;;;;4940914;29;20032;-73
2023/05/31 11:16:59;;;;;;;9.02;5.80;;;29.40;35.00;;;;;;4952002;29;20042;-73
2023/05/31 11:19:30;;;;;;;8.82;6.28;;;29.30;35.20;;;;;;4951105;29;20028;-74
2023/05/31 11:22:09;;;;;;;8.35;5.43;;;29.30;35.10;;;;;;4950902;28;20027;-74
2023/05/31 11:24:50;;;;;;;7.63;5.43;;;29.30;35.60;;;;;;4956538;29;20030;-74
2023/05/31 11:27:16;;;;;;;8.75;6.05;;;29.30;35.50;;;;;;4937280;29;20114;-73
2023/05/31 11:29:46;;;;;;;8.75;6.03;;;29.10;36.00;;;;;;4954323;29;20074;-73
2023/05/31 11:32:12;;;;;;;6.63;4.78;;;29.20;37.90;;;;;;4946661;29;20720;-74
2023/05/31 11:34:57;;;;;;;8.77;5.60;;;29.10;35.90;;;;;;4954024;28;20063;-73
2023/05/31 11:37:32;;;;;;;8.68;5.30;;;29.20;34.50;;;;;;4953807;28;20070;-73
2023/05/31 11:40:05;;;;;;;9.50;5.57;;;29.00;35.50;;;;;;4956190;29;20047;-73
2023/05/31 11:42:38;;;;;;;8.27;5.78;;;29.00;35.00;;;;;;4945273;28;20019;-74
2023/05/31 11:45:06;;;;;;;14.95;6.47;;;28.80;36.20;;;;;;4941836;29;20055;-74
2023/05/31 11:47:36;;;;;;;8.90;6.13;;;29.00;36.30;;;;;;4957308;28;20023;-74
2023/05/31 11:50:02;;;;;;;9.98;6.63;;;29.10;36.80;;;;;;4954623;29;20043;-74
2023/05/31 11:52:29;;;;;;;7.85;4.82;;;29.10;36.50;;;;;;4939133;29;20715;-74
2023/05/31 11:55:03;;;;;;;9.23;4.63;;;28.60;34.90;;;;;;4937370;29;20027;-74
2023/05/31 11:57:29;;;;;;;8.00;4.63;;;28.30;36.10;;;;;;4946625;29;20038;-74
2023/05/31 12:00:11;;;;;;;8.10;5.22;;;28.40;35.80;;;;;;4952335;29;20054;-73
2023/05/31 12:02:44;;;;;;;11.13;5.53;;;28.40;36.50;;;;;;4944871;29;20031;-73
2023/05/31 12:05:13;;;;;;;7.88;5.10;;;28.50;36.50;;;;;;4955394;28;20034;-73
2023/05/31 12:07:39;;;;;;;9.15;5.25;;;28.60;36.20;;;;;;4952355;28;20031;-73
2023/05/31 12:10:06;;;;;;;8.10;5.75;;;28.60;36.90;;;;;;4954743;29;20023;-74
2023/05/31 12:12:32;;;;;;;7.18;4.72;;;28.50;37.60;;;;;;4955325;29;20031;-74
2023/05/31 12:15:01;;;;;;;7.28;4.47;;;28.40;36.80;;;;;;4955571;28;20023;-74
2023/05/31 12:17:29;;;;;;;9.55;5.28;;;28.00;35.20;;;;;;4956488;28;20069;-74
2023/05/31 12:19:55;;;;;;;8.07;4.35;;;28.00;35.50;;;;;;4957364;29;20466;-73
2023/05/31 12:22:21;;;;;;;6.95;4.32;;;28.00;37.30;;;;;;4955694;29;20042;-73
2023/05/31 12:24:50;;;;;;;14.43;4.82;;;27.90;38.20;;;;;;4956847;29;20027;-74
2023/05/31 12:27:17;;;;;;;10.25;4.15;;;28.00;38.00;;;;;;4955168;29;20024;-73
2023/05/31 12:29:43;;;;;;;8.27;4.75;;;28.30;37.70;;;;;;4956476;29;20027;-74
2023/05/31 12:32:09;;;;;;;10.02;4.68;;;28.40;39.20;;;;;;4956663;29;20492;-74
2023/05/31 12:34:36;;;;;;;6.43;4.82;;;28.40;36.00;;;;;;4956830;28;20481;-73
2023/05/31 12:37:10;;;;;;;7.95;5.15;;;28.60;37.00;;;;;;4956318;28;20031;-75
2023/05/31 12:39:39;;;;;;;5.90;4.38;;;28.70;36.20;;;;;;4955617;29;20023;-73
2023/05/31 12:42:06;;;;;;;8.13;5.07;;;28.60;36.00;;;;;;4952984;28;20026;-74
2023/05/31 12:44:32;;;;;;;8.15;4.80;;;28.10;35.70;;;;;;4957005;28;20027;-74
2023/05/31 12:47:00;;;;;;;8.60;4.65;;;27.40;36.50;;;;;;4956487;29;20027;-74
2023/05/31 12:49:30;;;;;;;7.47;3.92;;;27.40;37.50;;;;;;4955800;29;20071;-74
2023/05/31 12:52:08;;;;;;;7.10;4.10;;;27.60;36.20;;;;;;4956379;29;20453;-74
2023/05/31 12:54:35;;;;;;;6.38;3.75;;;27.70;35.50;;;;;;4950194;29;20481;-74
2023/05/31 12:57:04;;;;;;;5.30;4.00;;;27.80;35.90;;;;;;4957195;29;20022;-74
2023/05/31 12:59:30;;;;;;;8.82;4.07;;;27.80;35.70;;;;;;4956705;29;21443;-74
2023/05/31 13:01:57;;;;;;;11.20;3.97;;;28.00;35.80;;;;;;4955768;28;20471;-74
2023/05/31 13:04:23;;;;;;;6.43;4.13;;;28.10;35.80;;;;;;4956425;29;20477;-74
2023/05/31 13:06:49;;;;;;;5.80;4.32;;;28.00;36.00;;;;;;4935631;29;20023;-74
2023/05/31 13:09:19;;;;;;;11.82;4.45;;;28.10;36.10;;;;;;4956740;29;20098;-73
2023/05/31 13:11:48;;;;;;;8.60;4.13;;;28.10;35.50;;;;;;4953659;28;20050;-71
2023/05/31 13:14:16;;;;;;;7.38;4.15;;;28.00;35.20;;;;;;4956010;29;20027;-73
2023/05/31 13:16:42;;;;;;;7.47;4.28;;;27.60;35.90;;;;;;4956899;29;20512;-74
2023/05/31 13:19:07;;;;;;;7.05;4.93;;;27.60;36.00;;;;;;4954977;29;20024;-73
2023/05/31 13:21:35;;;;;;;8.93;5.03;;;27.50;36.60;;;;;;4956243;29;20027;-74
2023/05/31 13:24:02;;;;;;;10.07;5.32;;;27.50;36.60;;;;;;4953822;28;20030;-73
2023/05/31 13:26:28;;;;;;;7.50;5.07;;;27.60;37.60;;;;;;4956814;29;20397;-73
2023/05/31 13:28:59;;;;;;;9.48;5.68;;;27.80;38.00;;;;;;4938532;29;20086;-73
2023/05/31 13:31:25;;;;;;;8.10;5.35;;;27.80;37.10;;;;;;4959489;29;20023;-73
2023/05/31 13:33:51;;;;;;;8.02;5.40;;;28.00;37.70;;;;;;4955122;28;20505;-73
2023/05/31 13:36:17;;;;;;;7.40;5.57;;;28.30;38.30;;;;;;4960875;28;20122;-73
2023/05/31 13:38:43;;;;;;;9.23;4.95;;;28.30;36.90;;;;;;4960261;28;20028;-73
2023/05/31 13:41:09;;;;;;;8.10;4.57;;;28.10;37.90;;;;;;4979553;28;20081;-74
2023/05/31 13:43:37;;;;;;;9.25;4.60;;;28.30;36.40;;;;;;4975042;28;20023;-73
2023/05/31 13:46:09;;;;;;;9.20;4.57;;;28.30;35.30;;;;;;4924895;29;20071;-73
2023/05/31 13:48:41;;;;;;;7.47;4.65;;;28.20;35.30;;;;;;4947610;28;20030;-73
2023/05/31 13:51:09;;;;;;;8.45;5.25;;;28.10;36.20;;;;;;4941232;29;20533;-72
2023/05/31 13:53:35;;;;;;;7.30;4.53;;;28.00;36.70;;;;;;4943142;29;20035;-73
2023/05/31 13:56:01;;;;;;;6.57;4.57;;;28.10;36.90;;;;;;4971633;28;20543;-72
2023/05/31 13:58:27;;;;;;;7.65;4.25;;;27.80;37.20;;;;;;4979293;28;20493;-72
2023/05/31 14:00:52;;;;;;;6.18;4.32;;;27.80;36.60;;;;;;4967725;28;20494;-72
2023/05/31 14:03:18;;;;;;;5.72;3.92;;;27.70;37.20;;;;;;4974304;28;20031;-74
2023/05/31 14:05:46;;;;;;;7.28;4.65;;;27.70;37.20;;;;;;4979437;28;20077;-74
2023/05/31 14:08:12;;;;;;;8.05;4.60;;;27.60;36.40;;;;;;4963455;28;20763;-78
2023/05/31 14:10:38;;;;;;;7.07;4.55;;;27.60;36.00;;;;;;4955494;29;20063;-73
2023/05/31 14:13:05;;;;;;;7.50;3.88;;;27.70;35.70;;;;;;4959372;28;20028;-73
2023/05/31 14:15:31;;;;;;;7.82;4.60;;;27.50;36.30;;;;;;4932544;28;20031;-74
2023/05/31 14:17:56;;;;;;;8.95;4.60;;;27.40;36.80;;;;;;4965338;28;20030;-72
2023/05/31 14:20:22;;;;;;;6.35;4.13;;;27.50;37.70;;;;;;4957734;28;20023;-79
2023/05/31 14:22:48;;;;;;;8.48;4.75;;;27.50;37.40;;;;;;4941214;28;20130;-76
2023/05/31 14:25:14;;;;;;;9.38;4.88;;;27.70;36.80;;;;;;4959487;29;20102;-75
2023/05/31 14:27:39;;;;;;;7.88;4.43;;;27.70;36.70;;;;;;4958004;28;20032;-75
2023/05/31 14:30:06;;;;;;;8.23;4.35;;;27.80;37.20;;;;;;4942377;29;20078;-75
2023/05/31 14:32:32;;;;;;;6.65;3.60;;;27.90;37.70;;;;;;4939355;29;20079;-74
2023/05/31 14:34:57;;;;;;;8.27;3.72;;;27.90;36.50;;;;;;4971949;28;20047;-72
2023/05/31 14:37:23;;;;;;;5.72;3.78;;;27.80;35.90;;;;;;4959443;29;20508;-73
2023/05/31 14:39:49;;;;;;;6.15;3.83;;;27.60;36.70;;;;;;4977609;28;20030;-74
2023/05/31 14:42:15;;;;;;;6.78;3.65;;;27.40;37.10;;;;;;4970504;28;20529;-74
2023/05/31 14:44:40;;;;;;;6.57;3.67;;;27.30;36.00;;;;;;4959504;28;20035;-74
2023/05/31 14:47:06;;;;;;;6.50;3.83;;;27.30;36.40;;;;;;4942068;29;20118;-73
2023/05/31 14:49:35;;;;;;;6.13;3.60;;;27.30;37.20;;;;;;4974732;28;20042;-79
2023/05/31 14:52:01;;;;;;;5.57;3.58;;;27.10;37.20;;;;;;4978661;28;20381;-74
2023/05/31 14:54:27;;;;;;;5.78;3.70;;;27.10;37.40;;;;;;4948409;29;20031;-75
2023/05/31 14:56:53;;;;;;;7.00;4.15;;;27.20;38.70;;;;;;4959016;29;20033;-74
2023/05/31 14:59:18;;;;;;;6.53;3.88;;;27.30;38.10;;;;;;4968642;28;20062;-74
2023/05/31 15:01:44;;;;;;;6.38;4.28;;;27.50;38.10;;;;;;4958889;29;20031;-74
2023/05/31 15:04:11;;;;;;;8.05;3.78;;;27.50;38.00;;;;;;4970461;28;20881;-73
2023/05/31 15:06:36;;;;;;;8.32;4.68;;;27.60;38.10;;;;;;4979006;28;20090;-73
2023/05/31 15:09:02;;;;;;;6.13;4.40;;;27.50;37.90;;;;;;4973129;28;20065;-73
2023/05/31 15:11:29;;;;;;;6.32;4.45;;;27.50;38.90;;;;;;4948522;29;20126;-74
2023/05/31 15:13:55;;;;;;;7.15;4.68;;;27.60;38.70;;;;;;4936926;29;20035;-79
2023/05/31 15:16:22;;;;;;;6.25;4.65;;;27.60;38.90;;;;;;4941182;29;20711;-78
2023/05/31 15:18:50;;;;;;;8.55;5.20;;;27.60;39.00;;;;;;4959122;29;20104;-77
2023/05/31 15:21:16;;;;;;;7.55;4.93;;;27.60;38.70;;;;;;4953020;29;20086;-81
2023/05/31 15:23:42;;;;;;;8.82;5.45;;;27.60;38.80;;;;;;4959516;29;20497;-79
2023/05/31 15:26:08;;;;;;;5.72;4.45;;;27.60;39.00;;;;;;4958631;29;20090;-79
2023/05/31 15:28:34;;;;;;;7.30;4.93;;;27.50;39.50;;;;;;4959545;28;20034;-79
2023/05/31 15:31:02;;;;;;;7.40;4.30;;;27.60;38.90;;;;;;4940574;29;20063;-77
2023/05/31 15:33:28;;;;;;;8.32;4.45;;;27.60;39.00;;;;;;4956340;29;20019;-76
2023/05/31 15:35:54;;;;;;;6.25;4.43;;;27.60;38.70;;;;;;4957424;28;20086;-78
2023/05/31 15:38:20;;;;;;;6.57;4.07;;;27.50;38.10;;;;;;4956210;29;20027;-79
2023/05/31 15:40:45;;;;;;;6.78;4.28;;;27.50;39.20;;;;;;4957697;29;20545;-78
2023/05/31 15:43:11;;;;;;;6.85;4.40;;;27.60;39.20;;;;;;4941489;29;20402;-79
2023/05/31 15:45:37;;;;;;;7.45;4.22;;;27.50;38.80;;;;;;4957872;28;20482;-79
2023/05/31 15:48:03;;;;;;;7.43;4.10;;;27.60;39.70;;;;;;4956497;29;20041;-79
2023/05/31 15:50:28;;;;;;;9.13;4.60;;;27.60;39.50;;;;;;4939960;29;20397;-80
2023/05/31 15:52:54;;;;;;;8.35;4.53;;;27.50;39.40;;;;;;4940539;29;20031;-78
2023/05/31 15:55:20;;;;;;;8.95;4.72;;;27.50;39.10;;;;;;4939871;29;20046;-85
2023/05/31 15:57:46;;;;;;;8.32;4.80;;;27.40;39.40;;;;;;4939799;29;20031;-78
2023/05/31 16:00:12;;;;;;;8.60;4.70;;;27.40;39.50;;;;;;4957912;29;20039;-77
2023/05/31 16:02:38;;;;;;;7.72;4.50;;;27.30;39.60;;;;;;4955324;28;20034;-78
2023/05/31 16:05:05;;;;;;;7.75;5.13;;;27.30;40.50;;;;;;4955701;28;20024;-83
2023/05/31 16:07:31;;;;;;;6.68;5.00;;;27.30;40.50;;;;;;4960805;28;20711;-78
2023/05/31 16:09:56;;;;;;;8.23;5.60;;;27.30;40.70;;;;;;4954700;29;20066;-78
2023/05/31 16:12:22;;;;;;;8.02;5.20;;;27.30;40.80;;;;;;4953222;28;20632;-77
2023/05/31 16:14:48;;;;;;;7.05;4.78;;;27.30;41.30;;;;;;4956209;29;20127;-77
2023/05/31 16:17:14;;;;;;;9.02;5.18;;;27.20;41.50;;;;;;4938868;28;20034;-79
2023/05/31 16:19:40;;;;;;;6.93;4.93;;;27.30;41.40;;;;;;4958645;28;20405;-77
2023/05/31 16:22:05;;;;;;;8.18;5.60;;;27.20;41.60;;;;;;4958822;28;20031;-78
2023/05/31 16:24:31;;;;;;;8.25;4.88;;;27.20;41.00;;;;;;4957218;29;20027;-77
2023/05/31 16:27:00;;;;;;;8.13;5.72;;;27.20;41.10;;;;;;4957412;29;20031;-82
2023/05/31 16:29:26;;;;;;;8.52;5.38;;;27.10;40.80;;;;;;4940415;29;20058;-77
2023/05/31 16:31:52;;;;;;;8.55;5.20;;;27.00;41.20;;;;;;4957660;29;20489;-80
2023/05/31 16:34:17;;;;;;;6.80;5.25;;;27.00;41.50;;;;;;4939520;29;20058;-79
2023/05/31 16:36:43;;;;;;;8.40;5.18;;;27.00;41.20;;;;;;4956185;29;20047;-79
2023/05/31 16:39:08;;;;;;;8.27;5.20;;;27.00;41.50;;;;;;4940473;29;20074;-78
2023/05/31 16:41:35;;;;;;;8.13;5.13;;;27.10;41.50;;;;;;4956188;29;20031;-78
2023/05/31 16:44:00;;;;;;;8.18;5.40;;;27.00;41.20;;;;;;4936923;29;20472;-78
2023/05/31 16:46:26;;;;;;;6.10;4.38;;;26.90;41.10;;;;;;4956085;28;20052;-78
2023/05/31 16:48:51;;;;;;;7.32;4.75;;;26.90;41.70;;;;;;4957541;29;20513;-78
2023/05/31 16:51:17;;;;;;;7.05;4.65;;;26.90;41.40;;;;;;4952304;28;20467;-78
2023/05/31 16:53:43;;;;;;;7.38;5.05;;;26.90;41.40;;;;;;4937921;29;20454;-78
2023/05/31 16:56:08;;;;;;;9.30;5.00;;;26.80;41.40;;;;;;4938989;29;21010;-78
2023/05/31 16:58:34;;;;;;;7.13;4.88;;;26.70;41.70;;;;;;4957225;29;20034;-79
2023/05/31 17:01:00;;;;;;;7.88;5.43;;;26.70;41.90;;;;;;4938947;29;20037;-78
2023/05/31 17:03:25;;;;;;;8.07;5.32;;;26.70;42.30;;;;;;4953617;29;20075;-78
2023/05/31 17:05:52;;;;;;;8.93;5.32;;;26.70;42.60;;;;;;4954385;28;20027;-74
2023/05/31 17:08:19;;;;;;;8.65;5.40;;;26.70;42.50;;;;;;4956135;29;20087;-73
2023/05/31 17:10:46;;;;;;;10.23;5.90;;;26.60;42.40;;;;;;4955694;29;20097;-73
2023/05/31 17:13:12;;;;;;;8.93;5.55;;;26.60;42.40;;;;;;4944649;29;20037;-73
2023/05/31 17:15:38;;;;;;;8.13;5.70;;;26.40;43.00;;;;;;4954684;28;20417;-75
2023/05/31 17:18:04;;;;;;;8.10;5.32;;;26.40;43.30;;;;;;4956232;29;20023;-75
2023/05/31 17:20:30;;;;;;;10.38;5.90;;;26.40;44.00;;;;;;4956187;29;20101;-74
2023/05/31 17:22:56;;;;;;;8.25;6.38;;;26.30;44.10;;;;;;4955048;29;20027;-74
2023/05/31 17:25:21;;;;;;;8.27;6.07;;;26.20;44.20;;;;;;4954120;29;20098;-77
2023/05/31 17:27:48;;;;;;;8.35;6.13;;;26.20;44.70;;;;;;4956746;29;20026;-75
2023/05/31 17:30:15;;;;;;;8.75;5.95;;;26.10;45.00;;;;;;4956127;29;20031;-74
2023/05/31 17:32:41;;;;;;;9.02;6.50;;;26.10;45.70;;;;;;4937400;29;20019;-74
2023/05/31 17:35:07;;;;;;;8.77;6.05;;;26.00;45.60;;;;;;4947179;29;20086;-75
2023/05/31 17:37:33;;;;;;;12.63;6.53;;;26.00;45.70;;;;;;4957741;29;20046;-74
2023/05/31 17:39:59;;;;;;;13.15;6.65;;;25.80;46.00;;;;;;4957646;29;20772;-74
2023/05/31 17:42:25;;;;;;;9.90;6.07;;;25.80;46.80;;;;;;4958366;28;20102;-74
2023/05/31 17:44:51;;;;;;;9.73;6.28;;;25.70;46.90;;;;;;4963774;28;20074;-75
2023/05/31 17:47:17;;;;;;;9.68;6.45;;;25.70;46.80;;;;;;4955971;28;20053;-75
2023/05/31 17:49:42;;;;;;;9.95;6.10;;;25.70;46.90;;;;;;4954247;29;20122;-74
2023/05/31 17:52:08;;;;;;;9.88;6.47;;;25.60;46.90;;;;;;4937847;29;20126;-74
2023/05/31 17:54:34;;;;;;;10.02;6.38;;;25.60;46.40;;;;;;4936484;29;20054;-74
2023/05/31 17:57:00;;;;;;;9.05;5.95;;;25.50;46.60;;;;;;4956286;29;20088;-75
2023/05/31 17:59:26;;;;;;;8.02;5.55;;;25.50;47.10;;;;;;4956682;29;20564;-76
2023/05/31 18:01:51;;;;;;;8.30;5.55;;;25.50;47.20;;;;;;4956028;29;20030;-74
2023/05/31 18:04:17;;;;;;;10.95;6.75;;;25.40;47.50;;;;;;4955600;29;20027;-74
2023/05/31 18:06:42;;;;;;;8.73;6.55;;;25.40;47.50;;;;;;4956707;29;20138;-76
2023/05/31 18:09:08;;;;;;;11.43;6.13;;;25.40;48.00;;;;;;4956768;29;20035;-77
2023/05/31 18:11:34;;;;;;;11.27;6.28;;;25.40;47.90;;;;;;4950076;29;20024;-78
2023/05/31 18:13:59;;;;;;;9.45;6.32;;;25.30;47.80;;;;;;4955469;29;20715;-75
2023/05/31 18:16:26;;;;;;;9.50;6.47;;;25.30;48.20;;;;;;4939838;29;20098;-81